sensor_id;sensor_type;location;lat;lon;timestamp;temperature;humidity
68109;SHT30;54893;49.864;19.084;2023-06-26T00:04:10;14.72;87.55
68109;SHT30;54893;49.864;19.084;2023-06-26T00:09:14;14.71;86.87
68109;SHT30;54893;49.864;19.084;2023-06-26T00:14:14;14.55;88.34
68109;SHT30;54893;49.864;19.084;2023-06-26T00:19:15;14.55;87.54
68109;SHT30;54893;49.864;19.084;2023-06-26T00:24:16;14.55;87.49
68109;SHT30;54893;49.864;19.084;2023-06-26T00:29:17;14.43;88.14
68109;SHT30;54893;49.864;19.084;2023-06-26T00:34:17;14.38;88.22
68109;SHT30;54893;49.864;19.084;2023-06-26T00:39:17;14.31;88.25
68109;SHT30;54893;49.864;19.084;2023-06-26T00:44:18;14.26;88.87
68109;SHT30;54893;49.864;19.084;2023-06-26T00:49:19;14.21;89.69
68109;SHT30;54893;49.864;19.084;2023-06-26T00:54:19;14.15;88.93
68109;SHT30;54893;49.864;19.084;2023-06-26T00:59:22;14.04;90.04
68109;SHT30;54893;49.864;19.084;2023-06-26T01:04:22;14.05;88.59
68109;SHT30;54893;49.864;19.084;2023-06-26T01:09:27;14.01;89.61
68109;SHT30;54893;49.864;19.084;2023-06-26T01:14:29;13.94;88.74
68109;SHT30;54893;49.864;19.084;2023-06-26T01:19:30;13.81;90.86
68109;SHT30;54893;49.864;19.084;2023-06-26T01:24:35;13.79;90.42
68109;SHT30;54893;49.864;19.084;2023-06-26T01:29:37;13.60;90.09
68109;SHT30;54893;49.864;19.084;2023-06-26T01:34:39;13.48;90.77
68109;SHT30;54893;49.864;19.084;2023-06-26T01:39:39;13.48;89.05
68109;SHT30;54893;49.864;19.084;2023-06-26T01:44:44;13.51;89.50
68109;SHT30;54893;49.864;19.084;2023-06-26T01:50:02;13.46;89.41
68109;SHT30;54893;49.864;19.084;2023-06-26T01:55:21;13.42;89.46
68109;SHT30;54893;49.864;19.084;2023-06-26T02:00:24;13.40;90.02
68109;SHT30;54893;49.864;19.084;2023-06-26T02:05:26;13.40;89.43
68109;SHT30;54893;49.864;19.084;2023-06-26T02:10:26;13.30;90.64
68109;SHT30;54893;49.864;19.084;2023-06-26T02:15:27;13.27;90.09
68109;SHT30;54893;49.864;19.084;2023-06-26T02:20:27;13.22;90.48
68109;SHT30;54893;49.864;19.084;2023-06-26T02:25:27;13.20;90.95
68109;SHT30;54893;49.864;19.084;2023-06-26T02:30:28;13.12;92.51
68109;SHT30;54893;49.864;19.084;2023-06-26T02:35:28;13.04;92.59
68109;SHT30;54893;49.864;19.084;2023-06-26T02:40:28;13.03;92.14
68109;SHT30;54893;49.864;19.084;2023-06-26T02:45:29;13.06;91.26
68109;SHT30;54893;49.864;19.084;2023-06-26T02:50:29;13.07;91.93
68109;SHT30;54893;49.864;19.084;2023-06-26T02:55:30;13.06;91.42
68109;SHT30;54893;49.864;19.084;2023-06-26T03:00:30;13.03;92.32
68109;SHT30;54893;49.864;19.084;2023-06-26T03:05:31;13.06;91.83
68109;SHT30;54893;49.864;19.084;2023-06-26T03:10:31;13.16;91.80
68109;SHT30;54893;49.864;19.084;2023-06-26T03:15:31;13.23;91.27
68109;SHT30;54893;49.864;19.084;2023-06-26T03:20:32;13.23;91.12
68109;SHT30;54893;49.864;19.084;2023-06-26T03:25:32;13.30;92.36
68109;SHT30;54893;49.864;19.084;2023-06-26T03:30:32;13.32;91.86
68109;SHT30;54893;49.864;19.084;2023-06-26T03:35:33;13.36;92.22
68109;SHT30;54893;49.864;19.084;2023-06-26T03:40:33;13.42;91.18
68109;SHT30;54893;49.864;19.084;2023-06-26T03:45:34;13.57;91.34
68109;SHT30;54893;49.864;19.084;2023-06-26T03:50:34;13.63;91.68
68109;SHT30;54893;49.864;19.084;2023-06-26T03:55:35;13.79;91.64
68109;SHT30;54893;49.864;19.084;2023-06-26T04:00:35;14.00;90.57
68109;SHT30;54893;49.864;19.084;2023-06-26T04:05:35;14.32;90.09
68109;SHT30;54893;49.864;19.084;2023-06-26T04:10:36;14.69;89.70
68109;SHT30;54893;49.864;19.084;2023-06-26T04:15:36;15.17;89.05
68109;SHT30;54893;49.864;19.084;2023-06-26T04:20:39;15.54;88.55
68109;SHT30;54893;49.864;19.084;2023-06-26T04:25:39;15.97;87.48
68109;SHT30;54893;49.864;19.084;2023-06-26T04:30:39;16.39;86.25
68109;SHT30;54893;49.864;19.084;2023-06-26T04:35:40;16.72;85.48
68109;SHT30;54893;49.864;19.084;2023-06-26T04:40:40;17.06;84.94
68109;SHT30;54893;49.864;19.084;2023-06-26T04:45:41;17.54;83.27
68109;SHT30;54893;49.864;19.084;2023-06-26T04:50:42;17.97;82.32
68109;SHT30;54893;49.864;19.084;2023-06-26T04:55:42;18.17;82.03
68109;SHT30;54893;49.864;19.084;2023-06-26T05:00:43;18.49;81.43
68109;SHT30;54893;49.864;19.084;2023-06-26T05:05:43;18.72;80.54
68109;SHT30;54893;49.864;19.084;2023-06-26T05:10:44;19.03;79.55
68109;SHT30;54893;49.864;19.084;2023-06-26T05:15:46;19.22;78.28
68109;SHT30;54893;49.864;19.084;2023-06-26T05:20:46;19.60;78.02
68109;SHT30;54893;49.864;19.084;2023-06-26T05:25:47;19.70;77.10
68109;SHT30;54893;49.864;19.084;2023-06-26T05:30:48;19.94;76.50
68109;SHT30;54893;49.864;19.084;2023-06-26T05:35:49;20.17;75.58
68109;SHT30;54893;49.864;19.084;2023-06-26T05:40:51;20.55;75.19
68109;SHT30;54893;49.864;19.084;2023-06-26T05:45:52;21.04;74.26
68109;SHT30;54893;49.864;19.084;2023-06-26T05:50:52;21.16;74.01
68109;SHT30;54893;49.864;19.084;2023-06-26T05:55:53;21.80;72.71
68109;SHT30;54893;49.864;19.084;2023-06-26T06:00:54;21.40;72.56
68109;SHT30;54893;49.864;19.084;2023-06-26T06:05:54;21.70;73.20
68109;SHT30;54893;49.864;19.084;2023-06-26T06:10:55;21.74;72.03
68109;SHT30;54893;49.864;19.084;2023-06-26T06:15:55;22.38;71.43
68109;SHT30;54893;49.864;19.084;2023-06-26T06:20:56;22.21;71.19
68109;SHT30;54893;49.864;19.084;2023-06-26T06:25:56;22.82;70.20
68109;SHT30;54893;49.864;19.084;2023-06-26T06:30:57;23.32;69.32
68109;SHT30;54893;49.864;19.084;2023-06-26T06:35:58;23.16;69.34
68109;SHT30;54893;49.864;19.084;2023-06-26T06:40:58;23.26;68.47
68109;SHT30;54893;49.864;19.084;2023-06-26T06:45:59;23.26;68.52
68109;SHT30;54893;49.864;19.084;2023-06-26T06:50:59;23.43;67.27
68109;SHT30;54893;49.864;19.084;2023-06-26T06:55:59;23.66;67.21
68109;SHT30;54893;49.864;19.084;2023-06-26T07:01:00;23.90;65.42
68109;SHT30;54893;49.864;19.084;2023-06-26T07:06:03;23.96;64.85
68109;SHT30;54893;49.864;19.084;2023-06-26T07:11:04;24.04;64.54
68109;SHT30;54893;49.864;19.084;2023-06-26T07:16:04;24.37;63.98
68109;SHT30;54893;49.864;19.084;2023-06-26T07:21:05;24.42;63.53
68109;SHT30;54893;49.864;19.084;2023-06-26T07:26:05;23.81;65.25
68109;SHT30;54893;49.864;19.084;2023-06-26T07:31:05;24.65;62.53
68109;SHT30;54893;49.864;19.084;2023-06-26T07:36:06;24.95;62.45
68109;SHT30;54893;49.864;19.084;2023-06-26T07:41:06;24.99;63.08
68109;SHT30;54893;49.864;19.084;2023-06-26T07:46:07;24.86;62.40
68109;SHT30;54893;49.864;19.084;2023-06-26T07:51:07;24.99;60.97
68109;SHT30;54893;49.864;19.084;2023-06-26T07:56:08;24.78;61.74
68109;SHT30;54893;49.864;19.084;2023-06-26T08:01:08;25.14;60.07
68109;SHT30;54893;49.864;19.084;2023-06-26T08:06:08;25.11;59.80
68109;SHT30;54893;49.864;19.084;2023-06-26T08:11:09;24.92;58.45
68109;SHT30;54893;49.864;19.084;2023-06-26T08:16:09;24.37;57.71
68109;SHT30;54893;49.864;19.084;2023-06-26T08:21:10;24.51;57.26
68109;SHT30;54893;49.864;19.084;2023-06-26T08:26:10;25.67;58.75
68109;SHT30;54893;49.864;19.084;2023-06-26T08:31:12;24.95;59.26
68109;SHT30;54893;49.864;19.084;2023-06-26T08:36:12;25.39;58.13
68109;SHT30;54893;49.864;19.084;2023-06-26T08:41:13;25.59;58.29
68109;SHT30;54893;49.864;19.084;2023-06-26T08:46:14;25.80;56.21
68109;SHT30;54893;49.864;19.084;2023-06-26T08:51:17;25.97;56.77
68109;SHT30;54893;49.864;19.084;2023-06-26T08:56:20;26.26;56.57
68109;SHT30;54893;49.864;19.084;2023-06-26T09:01:22;26.27;54.19
68109;SHT30;54893;49.864;19.084;2023-06-26T09:06:23;26.03;54.74
68109;SHT30;54893;49.864;19.084;2023-06-26T09:11:24;26.07;54.31
68109;SHT30;54893;49.864;19.084;2023-06-26T09:16:26;26.13;55.41
68109;SHT30;54893;49.864;19.084;2023-06-26T09:21:26;26.28;54.92
68109;SHT30;54893;49.864;19.084;2023-06-26T09:26:27;27.43;54.05
68109;SHT30;54893;49.864;19.084;2023-06-26T09:31:28;27.14;53.44
68109;SHT30;54893;49.864;19.084;2023-06-26T09:36:30;26.71;53.77
68109;SHT30;54893;49.864;19.084;2023-06-26T09:41:35;26.82;53.14
68109;SHT30;54893;49.864;19.084;2023-06-26T09:46:38;27.02;52.23
68109;SHT30;54893;49.864;19.084;2023-06-26T09:51:40;27.90;52.68
68109;SHT30;54893;49.864;19.084;2023-06-26T09:56:40;27.49;53.50
68109;SHT30;54893;49.864;19.084;2023-06-26T10:01:43;27.06;52.92
68109;SHT30;54893;49.864;19.084;2023-06-26T10:06:46;26.20;54.94
68109;SHT30;54893;49.864;19.084;2023-06-26T10:12:06;26.88;52.66
68109;SHT30;54893;49.864;19.084;2023-06-26T10:17:11;26.90;52.20
68109;SHT30;54893;49.864;19.084;2023-06-26T10:22:15;28.07;53.19
68109;SHT30;54893;49.864;19.084;2023-06-26T10:27:19;27.41;52.98
68109;SHT30;54893;49.864;19.084;2023-06-26T10:32:21;26.80;51.88
68109;SHT30;54893;49.864;19.084;2023-06-26T10:37:41;26.07;50.35
68109;SHT30;54893;49.864;19.084;2023-06-26T10:42:43;26.67;49.67
68109;SHT30;54893;49.864;19.084;2023-06-26T10:47:48;27.14;50.10
68109;SHT30;54893;49.864;19.084;2023-06-26T10:58:48;25.45;55.25
68109;SHT30;54893;49.864;19.084;2023-06-26T11:04:06;26.04;52.12
68109;SHT30;54893;49.864;19.084;2023-06-26T11:09:13;26.50;52.13
68109;SHT30;54893;49.864;19.084;2023-06-26T11:14:15;26.75;51.22
68109;SHT30;54893;49.864;19.084;2023-06-26T11:19:17;26.40;51.73
68109;SHT30;54893;49.864;19.084;2023-06-26T11:24:19;27.06;50.73
68109;SHT30;54893;49.864;19.084;2023-06-26T11:29:19;26.72;50.12
68109;SHT30;54893;49.864;19.084;2023-06-26T11:34:20;26.98;52.67
68109;SHT30;54893;49.864;19.084;2023-06-26T11:39:22;27.50;50.87
68109;SHT30;54893;49.864;19.084;2023-06-26T11:44:23;27.67;50.63
68109;SHT30;54893;49.864;19.084;2023-06-26T11:49:25;27.71;51.00
68109;SHT30;54893;49.864;19.084;2023-06-26T11:54:27;28.04;51.27
68109;SHT30;54893;49.864;19.084;2023-06-26T11:59:39;27.76;50.57
68109;SHT30;54893;49.864;19.084;2023-06-26T12:04:43;27.25;51.77
68109;SHT30;54893;49.864;19.084;2023-06-26T12:09:45;26.26;54.69
68109;SHT30;54893;49.864;19.084;2023-06-26T12:14:46;25.65;54.41
68109;SHT30;54893;49.864;19.084;2023-06-26T12:19:47;25.45;55.18
68109;SHT30;54893;49.864;19.084;2023-06-26T12:24:50;26.71;52.35
68109;SHT30;54893;49.864;19.084;2023-06-26T12:29:53;27.52;51.84
68109;SHT30;54893;49.864;19.084;2023-06-26T12:34:56;26.71;53.09
68109;SHT30;54893;49.864;19.084;2023-06-26T12:39:57;26.12;53.72
68109;SHT30;54893;49.864;19.084;2023-06-26T12:44:58;26.72;52.78
68109;SHT30;54893;49.864;19.084;2023-06-26T12:49:58;26.55;52.42
68109;SHT30;54893;49.864;19.084;2023-06-26T12:54:59;27.09;50.89
68109;SHT30;54893;49.864;19.084;2023-06-26T12:59:59;27.67;50.03
68109;SHT30;54893;49.864;19.084;2023-06-26T13:05:01;27.71;50.64
68109;SHT30;54893;49.864;19.084;2023-06-26T13:10:01;27.63;50.17
68109;SHT30;54893;49.864;19.084;2023-06-26T13:15:01;27.12;51.55
68109;SHT30;54893;49.864;19.084;2023-06-26T13:20:02;26.88;51.76
68109;SHT30;54893;49.864;19.084;2023-06-26T13:25:04;27.09;50.82
68109;SHT30;54893;49.864;19.084;2023-06-26T13:30:05;27.80;48.44
68109;SHT30;54893;49.864;19.084;2023-06-26T13:35:06;27.92;49.34
68109;SHT30;54893;49.864;19.084;2023-06-26T13:40:07;28.54;47.38
68109;SHT30;54893;49.864;19.084;2023-06-26T13:45:08;29.12;46.11
68109;SHT30;54893;49.864;19.084;2023-06-26T13:50:09;28.91;47.35
68109;SHT30;54893;49.864;19.084;2023-06-26T13:55:10;28.88;46.76
68109;SHT30;54893;49.864;19.084;2023-06-26T14:00:11;28.07;46.83
68109;SHT30;54893;49.864;19.084;2023-06-26T14:05:12;28.75;47.52
68109;SHT30;54893;49.864;19.084;2023-06-26T14:10:13;30.83;43.64
68109;SHT30;54893;49.864;19.084;2023-06-26T14:15:14;31.62;42.07
68109;SHT30;54893;49.864;19.084;2023-06-26T14:20:14;32.74;38.92
68109;SHT30;54893;49.864;19.084;2023-06-26T14:25:16;33.81;39.04
68109;SHT30;54893;49.864;19.084;2023-06-26T14:30:16;34.18;39.82
68109;SHT30;54893;49.864;19.084;2023-06-26T14:35:17;35.58;37.65
68109;SHT30;54893;49.864;19.084;2023-06-26T14:40:17;37.65;37.28
68109;SHT30;54893;49.864;19.084;2023-06-26T14:45:18;38.27;36.00
68109;SHT30;54893;49.864;19.084;2023-06-26T14:50:18;37.90;35.46
68109;SHT30;54893;49.864;19.084;2023-06-26T14:55:19;39.81;35.10
68109;SHT30;54893;49.864;19.084;2023-06-26T15:00:19;39.25;34.35
68109;SHT30;54893;49.864;19.084;2023-06-26T15:05:20;38.90;34.20
68109;SHT30;54893;49.864;19.084;2023-06-26T15:10:22;38.68;34.11
68109;SHT30;54893;49.864;19.084;2023-06-26T15:15:22;40.06;33.76
68109;SHT30;54893;49.864;19.084;2023-06-26T15:20:22;39.49;33.09
68109;SHT30;54893;49.864;19.084;2023-06-26T15:25:23;39.02;33.52
68109;SHT30;54893;49.864;19.084;2023-06-26T15:30:23;39.35;33.54
68109;SHT30;54893;49.864;19.084;2023-06-26T15:35:24;39.25;32.96
68109;SHT30;54893;49.864;19.084;2023-06-26T15:40:24;39.51;32.44
68109;SHT30;54893;49.864;19.084;2023-06-26T15:45:25;38.33;34.91
68109;SHT30;54893;49.864;19.084;2023-06-26T15:50:25;39.92;32.53
68109;SHT30;54893;49.864;19.084;2023-06-26T15:55:28;39.86;32.67
68109;SHT30;54893;49.864;19.084;2023-06-26T16:00:28;39.88;32.39
68109;SHT30;54893;49.864;19.084;2023-06-26T16:05:28;39.55;32.56
68109;SHT30;54893;49.864;19.084;2023-06-26T16:10:29;40.03;32.68
68109;SHT30;54893;49.864;19.084;2023-06-26T16:15:29;40.63;32.53
68109;SHT30;54893;49.864;19.084;2023-06-26T16:20:30;39.92;31.86
68109;SHT30;54893;49.864;19.084;2023-06-26T16:25:30;40.07;31.52
68109;SHT30;54893;49.864;19.084;2023-06-26T16:30:30;39.83;32.91
68109;SHT30;54893;49.864;19.084;2023-06-26T16:35:31;38.14;32.36
68109;SHT30;54893;49.864;19.084;2023-06-26T16:40:34;38.71;32.91
68109;SHT30;54893;49.864;19.084;2023-06-26T16:45:34;39.17;32.43
68109;SHT30;54893;49.864;19.084;2023-06-26T16:50:35;38.84;32.57
68109;SHT30;54893;49.864;19.084;2023-06-26T16:55:35;38.28;32.58
68109;SHT30;54893;49.864;19.084;2023-06-26T17:00:35;38.23;32.78
68109;SHT30;54893;49.864;19.084;2023-06-26T17:05:38;38.10;33.12
68109;SHT30;54893;49.864;19.084;2023-06-26T17:10:39;37.81;33.39
68109;SHT30;54893;49.864;19.084;2023-06-26T17:15:39;37.81;33.03
68109;SHT30;54893;49.864;19.084;2023-06-26T17:20:40;37.81;32.70
68109;SHT30;54893;49.864;19.084;2023-06-26T17:25:40;37.35;34.52
68109;SHT30;54893;49.864;19.084;2023-06-26T17:30:40;36.76;35.20
68109;SHT30;54893;49.864;19.084;2023-06-26T17:35:42;36.42;35.48
68109;SHT30;54893;49.864;19.084;2023-06-26T17:40:42;36.08;36.00
68109;SHT30;54893;49.864;19.084;2023-06-26T17:45:43;35.47;36.63
68109;SHT30;54893;49.864;19.084;2023-06-26T17:50:43;35.09;37.11
68109;SHT30;54893;49.864;19.084;2023-06-26T17:55:43;34.33;37.75
68109;SHT30;54893;49.864;19.084;2023-06-26T18:00:44;33.51;38.60
68109;SHT30;54893;49.864;19.084;2023-06-26T18:05:44;32.60;39.26
68109;SHT30;54893;49.864;19.084;2023-06-26T18:10:45;30.84;41.86
68109;SHT30;54893;49.864;19.084;2023-06-26T18:15:45;27.97;45.21
68109;SHT30;54893;49.864;19.084;2023-06-26T18:20:46;26.58;47.11
68109;SHT30;54893;49.864;19.084;2023-06-26T18:25:46;25.47;50.26
68109;SHT30;54893;49.864;19.084;2023-06-26T18:30:46;24.57;52.05
68109;SHT30;54893;49.864;19.084;2023-06-26T18:35:47;24.00;52.76
68109;SHT30;54893;49.864;19.084;2023-06-26T18:40:47;23.60;52.24
68109;SHT30;54893;49.864;19.084;2023-06-26T18:45:48;23.15;53.52
68109;SHT30;54893;49.864;19.084;2023-06-26T18:50:48;22.73;53.35
68109;SHT30;54893;49.864;19.084;2023-06-26T18:55:49;22.44;54.30
68109;SHT30;54893;49.864;19.084;2023-06-26T19:00:49;22.22;53.79
68109;SHT30;54893;49.864;19.084;2023-06-26T19:05:49;22.04;55.37
68109;SHT30;54893;49.864;19.084;2023-06-26T19:10:50;21.73;56.27
68109;SHT30;54893;49.864;19.084;2023-06-26T19:15:50;21.56;55.91
68109;SHT30;54893;49.864;19.084;2023-06-26T19:20:50;21.33;58.53
68109;SHT30;54893;49.864;19.084;2023-06-26T19:25:51;21.04;59.30
68109;SHT30;54893;49.864;19.084;2023-06-26T19:30:51;20.93;59.15
68109;SHT30;54893;49.864;19.084;2023-06-26T19:35:52;20.73;58.95
68109;SHT30;54893;49.864;19.084;2023-06-26T19:40:53;20.67;59.87
68109;SHT30;54893;49.864;19.084;2023-06-26T19:45:53;20.49;59.49
68109;SHT30;54893;49.864;19.084;2023-06-26T19:51:07;20.48;61.44
68109;SHT30;54893;49.864;19.084;2023-06-26T19:56:08;20.39;61.57
68109;SHT30;54893;49.864;19.084;2023-06-26T20:01:08;20.35;60.28
68109;SHT30;54893;49.864;19.084;2023-06-26T20:06:09;20.14;60.94
68109;SHT30;54893;49.864;19.084;2023-06-26T20:11:09;20.00;60.11
68109;SHT30;54893;49.864;19.084;2023-06-26T20:16:10;19.87;61.47
68109;SHT30;54893;49.864;19.084;2023-06-26T20:21:10;19.64;62.34
68109;SHT30;54893;49.864;19.084;2023-06-26T20:26:11;19.54;62.65
68109;SHT30;54893;49.864;19.084;2023-06-26T20:31:12;19.39;65.77
68109;SHT30;54893;49.864;19.084;2023-06-26T20:36:12;19.36;63.71
68109;SHT30;54893;49.864;19.084;2023-06-26T20:41:13;19.28;65.85
68109;SHT30;54893;49.864;19.084;2023-06-26T20:46:14;19.24;65.49
68109;SHT30;54893;49.864;19.084;2023-06-26T20:51:17;19.07;66.99
68109;SHT30;54893;49.864;19.084;2023-06-26T20:56:22;18.99;65.59
68109;SHT30;54893;49.864;19.084;2023-06-26T21:01:25;18.89;65.41
68109;SHT30;54893;49.864;19.084;2023-06-26T21:06:25;18.92;65.85
68109;SHT30;54893;49.864;19.084;2023-06-26T21:11:26;18.81;67.63
68109;SHT30;54893;49.864;19.084;2023-06-26T21:16:26;18.69;67.93
68109;SHT30;54893;49.864;19.084;2023-06-26T21:21:26;18.61;67.47
68109;SHT30;54893;49.864;19.084;2023-06-26T21:26:27;18.52;68.82
68109;SHT30;54893;49.864;19.084;2023-06-26T21:31:27;18.55;68.36
68109;SHT30;54893;49.864;19.084;2023-06-26T21:36:27;18.51;70.03
68109;SHT30;54893;49.864;19.084;2023-06-26T21:41:28;18.38;69.69
68109;SHT30;54893;49.864;19.084;2023-06-26T21:46:29;18.42;70.13
68109;SHT30;54893;49.864;19.084;2023-06-26T21:51:29;18.44;70.48
68109;SHT30;54893;49.864;19.084;2023-06-26T21:56:30;18.47;71.28
68109;SHT30;54893;49.864;19.084;2023-06-26T22:01:30;18.47;70.30
68109;SHT30;54893;49.864;19.084;2023-06-26T22:06:30;18.56;71.25
68109;SHT30;54893;49.864;19.084;2023-06-26T22:11:31;18.59;70.57
68109;SHT30;54893;49.864;19.084;2023-06-26T22:16:31;18.51;71.84
68109;SHT30;54893;49.864;19.084;2023-06-26T22:21:32;18.44;74.03
68109;SHT30;54893;49.864;19.084;2023-06-26T22:26:32;18.48;71.24
68109;SHT30;54893;49.864;19.084;2023-06-26T22:31:32;18.58;71.55
68109;SHT30;54893;49.864;19.084;2023-06-26T22:36:33;18.65;69.84
68109;SHT30;54893;49.864;19.084;2023-06-26T22:41:33;18.75;72.65
68109;SHT30;54893;49.864;19.084;2023-06-26T22:46:34;18.65;70.28
68109;SHT30;54893;49.864;19.084;2023-06-26T22:51:34;18.76;69.95
68109;SHT30;54893;49.864;19.084;2023-06-26T22:56:34;19.12;70.21
68109;SHT30;54893;49.864;19.084;2023-06-26T23:01:35;19.13;69.42
68109;SHT30;54893;49.864;19.084;2023-06-26T23:06:36;19.23;69.62
68109;SHT30;54893;49.864;19.084;2023-06-26T23:11:37;19.23;69.84
68109;SHT30;54893;49.864;19.084;2023-06-26T23:16:38;19.15;69.95
68109;SHT30;54893;49.864;19.084;2023-06-26T23:21:39;19.17;69.78
68109;SHT30;54893;49.864;19.084;2023-06-26T23:26:39;19.43;69.14
68109;SHT30;54893;49.864;19.084;2023-06-26T23:31:40;19.95;69.96
68109;SHT30;54893;49.864;19.084;2023-06-26T23:36:44;20.58;68.49
68109;SHT30;54893;49.864;19.084;2023-06-26T23:41:45;20.47;70.33
68109;SHT30;54893;49.864;19.084;2023-06-26T23:46:49;19.70;77.58
68109;SHT30;54893;49.864;19.084;2023-06-26T23:51:50;18.93;79.73
68109;SHT30;54893;49.864;19.084;2023-06-26T23:56:51;18.68;82.55
